• Join FlightAware (Why Join?)
  • Login
  • US Flag 
09:06PM EDT


 

Airport Tracker/Info


-or-


 

Live Flight TrackerFlight Track Log ✈ N22WU ✈ 06-May-2013 ✈ KBTL - KSBN

Flight Track Log - Related Links

Times and Time Zones

All times are in EDT time to prevent confusion due to time zone crossing. See the N22WU flight status page for this flight to view local times or setup timezone preferences in your user account.

Time Position Orientation Groundspeed Altitude Reporting Facility
EDT Latitude Longitude Course Direction KTS MPH feet Rate Location/Type
08:05AM 42.3117 -85.1961 235° Southwest 96 110 3,300  Level Chicago Center
08:06AM 42.2831 -85.1997 185° South 101 116 4,000 420 Climbing Chicago Center
08:08AM 42.2591 -85.2803 248° West  Level FlightAware Approximate
08:08AM 42.2100 -85.2186 248° West 128 147 4,700  Level Chicago Center
08:09AM 42.1897 -85.4866 235° Southwest  Level FlightAware Approximate
08:09AM 42.1919 -85.2611 240° Southwest 131 151 5,300  Level Chicago Center
08:10AM 42.1698 -85.5250 235° Southwest  Level FlightAware Approximate
08:10AM 42.1783 -85.3008 245° Southwest 123 142 6,000  Level Chicago Center
08:11AM 42.1583 -85.3411 236° Southwest 125 144 6,100  Climbing Chicago Center
08:12AM 42.1394 -85.3908 243° Southwest 142 163 6,000 -60 Descending Chicago Center
08:13AM 42.1169 -85.4539 244° Southwest 154 177 6,000  Level Chicago Center
08:14AM 42.0964 -85.5053 242° Southwest 156 180 6,000  Level Chicago Center
08:15AM 42.0756 -85.5564 241° Southwest 157 181 6,000  Level Chicago Center
08:16AM 42.0533 -85.6061 239° Southwest 155 178 6,000  Level Chicago Center
08:17AM 42.0325 -85.6567 241° Southwest 156 180 6,000  Level Chicago Center
08:18AM 42.0078 -85.7200 242° Southwest 159 183 6,000  Level Chicago Center
08:19AM 41.9861 -85.7706 240° Southwest 158 182 6,000 -60 Level Chicago Center
08:21AM 41.9845 -85.8375 268° West  Level FlightAware Approximate
08:22AM 41.9217 -85.9247 237° Southwest 160 184 5,900  Level Chicago Center
08:23AM 41.8992 -85.9742 239° Southwest 157 181 6,000  Climbing Chicago Center
08:24AM 41.8767 -86.0394 245° Southwest 160 184 6,000  Level Chicago Center
08:26AM 41.8473 -86.0830 242° Southwest  Level FlightAware Approximate
08:26AM 41.8303 -86.1397 242° Southwest 158 182 6,000  Level Chicago Center
08:27AM 41.8067 -86.1889 237° Southwest 158 182 5,900 -300 Descending Chicago Center
08:28AM 41.8361 -86.0961 237° Southwest  Level Estimated
08:28AM 41.7836 -86.2422 240° Southwest 163 188 5,400  Level Chicago Center
08:29AM 41.7558 -86.3064 240° Southwest 166 191 4,800 -480 Descending Chicago Center
08:31AM 41.7380 -86.3540 243° Southwest  Level FlightAware Approximate
08:31AM 41.7100 -86.4131 243° Southwest 166 191 4,000  Level Chicago Center
08:33AM 41.6881 -86.4633 240° Southwest 159 183 4,000  Level Chicago Center
08:34AM 41.6701 -86.5041 240° Southwest  Level FlightAware Approximate
08:36AM 41.6256 -86.6156 239° Southwest 148 170 4,000  Level Chicago Center
08:37AM 41.6061 -86.6625 241° Southwest 147 169 4,000 -360 Level Chicago Center
08:39AM 41.5553 -86.7758 239° Southwest 161 185 2,900 -540 Descending Chicago Center
08:40AM 41.5344 -86.8256 241° Southwest 156 180 2,500 -240 Descending Chicago Center
08:41AM 41.7082 -86.3173 239° Southwest  Level Estimated
08:41AM 41.5153 -86.8711 241° Southwest 150 173 2,500  Level Chicago Center
08:42AM 41.4950 -86.9133 237° Southwest 142 163 2,500 -300 Level Chicago Center
08:43AM 41.4783 -86.9583 244° Southwest 138 159 1,900 60 Descending Chicago Center
08:45AM 41.5017 -86.8870 66° East  Level FlightAware Approximate
08:52AM 41.6004 -86.5837 66° East  Level FlightAware Approximate
08:52AM 41.5514 -86.9264 23° Northeast 121 139 3,100  Level Chicago Center
08:53AM 41.6144 -86.5403 67° East  Level FlightAware Approximate
08:53AM 41.5644 -86.8781 70° East 140 161 3,000  Level Chicago Center
08:54AM 41.6309 -86.4979 62° Northeast  Level FlightAware Approximate
08:54AM 41.5728 -86.8289 77° East 138 159 3,000  Level Chicago Center
08:55AM 41.6475 -86.4562 62° Northeast  Level FlightAware Approximate
08:56AM 41.6623 -86.4132 66° East  Level FlightAware Approximate
08:56AM 41.5908 -86.7214 77° East 137 158 3,000  Level Chicago Center
08:57AM 41.5981 -86.6758 78° East 135 155 3,000  Level Chicago Center
08:58AM 41.6075 -86.6264 76° East 137 158 3,000  Level Chicago Center
09:00AM 41.6636 -86.5831 30° Northeast 147 169 3,000  Level Chicago Center
09:02AM 41.7000 -86.5172 53° Northeast 125 144 3,000  Level Chicago Center
09:03AM 41.7011 -86.4781 88° East 109 125 3,000 -360 Level Chicago Center
09:05AM 41.7011 -86.4017 90° East 103 119 1,900 -600 Descending Chicago Center
09:06AM 41.7022 -86.3614 88° East 105 121 1,300 -420 Descending Chicago Center
09:07AM 41.7050 -86.3150 85° East 106 122 1,100 -240 Descending Chicago Center